sensor_id;sensor_type;location;lat;lon;timestamp;temperature;humidity
34135;DHT22;20410;55.578;12.968;2022-12-20T00:00:01;6.00;99.90
34135;DHT22;20410;55.578;12.968;2022-12-20T00:02:27;6.10;99.90
34135;DHT22;20410;55.578;12.968;2022-12-20T00:04:52;6.00;99.90
34135;DHT22;20410;55.578;12.968;2022-12-20T00:07:18;6.00;99.90
34135;DHT22;20410;55.578;12.968;2022-12-20T00:09:44;6.10;99.90
34135;DHT22;20410;55.578;12.968;2022-12-20T00:12:09;6.10;99.90
34135;DHT22;20410;55.578;12.968;2022-12-20T00:14:35;6.10;99.90
34135;DHT22;20410;55.578;12.968;2022-12-20T00:17:00;6.10;99.90
34135;DHT22;20410;55.578;12.968;2022-12-20T00:19:26;6.10;99.90
34135;DHT22;20410;55.578;12.968;2022-12-20T00:21:52;6.10;99.90
34135;DHT22;20410;55.578;12.968;2022-12-20T00:24:17;6.10;99.90
34135;DHT22;20410;55.578;12.968;2022-12-20T00:26:43;6.20;99.90
34135;DHT22;20410;55.578;12.968;2022-12-20T00:29:09;6.20;99.90
34135;DHT22;20410;55.578;12.968;2022-12-20T00:31:35;6.10;99.90
34135;DHT22;20410;55.578;12.968;2022-12-20T00:34:00;6.20;99.90
34135;DHT22;20410;55.578;12.968;2022-12-20T00:36:27;6.20;99.90
34135;DHT22;20410;55.578;12.968;2022-12-20T00:38:55;6.20;99.90
34135;DHT22;20410;55.578;12.968;2022-12-20T00:41:23;6.20;99.90
34135;DHT22;20410;55.578;12.968;2022-12-20T00:43:50;6.20;99.90
34135;DHT22;20410;55.578;12.968;2022-12-20T00:46:17;6.20;99.90
34135;DHT22;20410;55.578;12.968;2022-12-20T00:48:43;6.20;99.90
34135;DHT22;20410;55.578;12.968;2022-12-20T00:51:15;6.20;99.90
34135;DHT22;20410;55.578;12.968;2022-12-20T00:53:42;6.30;99.90
34135;DHT22;20410;55.578;12.968;2022-12-20T00:56:08;6.30;99.90
34135;DHT22;20410;55.578;12.968;2022-12-20T00:58:36;6.30;99.90
34135;DHT22;20410;55.578;12.968;2022-12-20T01:01:03;6.30;99.90
34135;DHT22;20410;55.578;12.968;2022-12-20T01:03:29;6.30;99.90
34135;DHT22;20410;55.578;12.968;2022-12-20T01:05:58;6.30;99.90
34135;DHT22;20410;55.578;12.968;2022-12-20T01:08:26;6.30;99.90
34135;DHT22;20410;55.578;12.968;2022-12-20T01:11:00;6.30;99.90
34135;DHT22;20410;55.578;12.968;2022-12-20T01:13:27;6.30;99.90
34135;DHT22;20410;55.578;12.968;2022-12-20T01:15:53;6.30;99.90
34135;DHT22;20410;55.578;12.968;2022-12-20T01:18:19;6.30;99.90
34135;DHT22;20410;55.578;12.968;2022-12-20T01:20:44;6.30;99.90
34135;DHT22;20410;55.578;12.968;2022-12-20T01:23:10;6.30;99.90
34135;DHT22;20410;55.578;12.968;2022-12-20T01:25:36;6.30;99.90
34135;DHT22;20410;55.578;12.968;2022-12-20T01:28:01;6.30;99.90
34135;DHT22;20410;55.578;12.968;2022-12-20T01:30:27;6.20;99.90
34135;DHT22;20410;55.578;12.968;2022-12-20T01:32:52;6.30;99.90
34135;DHT22;20410;55.578;12.968;2022-12-20T01:35:18;6.20;99.90
34135;DHT22;20410;55.578;12.968;2022-12-20T01:37:44;6.20;99.90
34135;DHT22;20410;55.578;12.968;2022-12-20T01:40:09;6.30;99.90
34135;DHT22;20410;55.578;12.968;2022-12-20T01:42:36;6.30;99.90
34135;DHT22;20410;55.578;12.968;2022-12-20T01:45:06;6.30;99.90
34135;DHT22;20410;55.578;12.968;2022-12-20T01:47:33;6.30;99.90
34135;DHT22;20410;55.578;12.968;2022-12-20T01:50:02;6.30;99.90
34135;DHT22;20410;55.578;12.968;2022-12-20T01:52:38;6.30;99.90
34135;DHT22;20410;55.578;12.968;2022-12-20T01:55:25;6.30;99.90
34135;DHT22;20410;55.578;12.968;2022-12-20T01:57:59;6.30;99.90
34135;DHT22;20410;55.578;12.968;2022-12-20T02:00:26;6.30;99.90
34135;DHT22;20410;55.578;12.968;2022-12-20T02:02:53;6.30;99.90
34135;DHT22;20410;55.578;12.968;2022-12-20T02:05:21;6.30;99.90
34135;DHT22;20410;55.578;12.968;2022-12-20T02:07:50;6.20;99.90
34135;DHT22;20410;55.578;12.968;2022-12-20T02:10:18;6.30;99.90
34135;DHT22;20410;55.578;12.968;2022-12-20T02:12:46;6.30;99.90
34135;DHT22;20410;55.578;12.968;2022-12-20T02:18:16;6.30;99.90
34135;DHT22;20410;55.578;12.968;2022-12-20T02:21:02;6.30;99.90
34135;DHT22;20410;55.578;12.968;2022-12-20T02:34:21;6.20;99.90
34135;DHT22;20410;55.578;12.968;2022-12-20T02:36:50;6.20;99.90
34135;DHT22;20410;55.578;12.968;2022-12-20T02:39:15;6.20;99.90
34135;DHT22;20410;55.578;12.968;2022-12-20T02:41:51;6.20;99.90
34135;DHT22;20410;55.578;12.968;2022-12-20T02:44:23;6.20;99.90
34135;DHT22;20410;55.578;12.968;2022-12-20T02:47:13;6.20;99.90
34135;DHT22;20410;55.578;12.968;2022-12-20T02:49:41;6.20;99.90
34135;DHT22;20410;55.578;12.968;2022-12-20T02:52:09;6.20;99.90
34135;DHT22;20410;55.578;12.968;2022-12-20T02:54:36;6.20;99.90
34135;DHT22;20410;55.578;12.968;2022-12-20T02:57:22;6.20;99.90
34135;DHT22;20410;55.578;12.968;2022-12-20T03:00:10;6.20;99.90
34135;DHT22;20410;55.578;12.968;2022-12-20T03:02:37;6.20;99.90
34135;DHT22;20410;55.578;12.968;2022-12-20T03:05:24;6.20;99.90
34135;DHT22;20410;55.578;12.968;2022-12-20T03:07:50;6.20;99.90
34135;DHT22;20410;55.578;12.968;2022-12-20T03:10:17;6.20;99.90
34135;DHT22;20410;55.578;12.968;2022-12-20T03:12:42;6.20;99.90
34135;DHT22;20410;55.578;12.968;2022-12-20T03:15:08;6.20;99.90
34135;DHT22;20410;55.578;12.968;2022-12-20T03:17:34;6.20;99.90
34135;DHT22;20410;55.578;12.968;2022-12-20T03:20:00;6.20;99.90
34135;DHT22;20410;55.578;12.968;2022-12-20T03:22:26;6.20;99.90
34135;DHT22;20410;55.578;12.968;2022-12-20T03:24:51;6.20;99.90
34135;DHT22;20410;55.578;12.968;2022-12-20T03:27:17;6.20;99.90
34135;DHT22;20410;55.578;12.968;2022-12-20T03:29:43;6.10;99.90
34135;DHT22;20410;55.578;12.968;2022-12-20T03:32:10;6.20;99.90
34135;DHT22;20410;55.578;12.968;2022-12-20T03:34:36;6.20;99.90
34135;DHT22;20410;55.578;12.968;2022-12-20T03:37:02;6.20;99.90
34135;DHT22;20410;55.578;12.968;2022-12-20T03:39:28;6.20;99.90
34135;DHT22;20410;55.578;12.968;2022-12-20T03:41:53;6.20;99.90
34135;DHT22;20410;55.578;12.968;2022-12-20T03:44:19;6.20;99.90
34135;DHT22;20410;55.578;12.968;2022-12-20T03:46:45;6.10;99.90
34135;DHT22;20410;55.578;12.968;2022-12-20T03:49:10;6.20;99.90
34135;DHT22;20410;55.578;12.968;2022-12-20T03:51:36;6.20;99.90
34135;DHT22;20410;55.578;12.968;2022-12-20T03:54:01;6.20;99.90
34135;DHT22;20410;55.578;12.968;2022-12-20T03:56:27;6.20;99.90
34135;DHT22;20410;55.578;12.968;2022-12-20T03:58:53;6.30;99.90
34135;DHT22;20410;55.578;12.968;2022-12-20T04:01:24;6.20;99.90
34135;DHT22;20410;55.578;12.968;2022-12-20T04:03:51;6.20;99.90
34135;DHT22;20410;55.578;12.968;2022-12-20T04:06:17;6.20;99.90
34135;DHT22;20410;55.578;12.968;2022-12-20T04:08:43;6.30;99.90
34135;DHT22;20410;55.578;12.968;2022-12-20T04:11:09;6.30;99.90
34135;DHT22;20410;55.578;12.968;2022-12-20T04:13:41;6.30;99.90
34135;DHT22;20410;55.578;12.968;2022-12-20T04:16:07;6.30;99.90
34135;DHT22;20410;55.578;12.968;2022-12-20T04:18:32;6.30;99.90
34135;DHT22;20410;55.578;12.968;2022-12-20T04:21:02;6.30;99.90
34135;DHT22;20410;55.578;12.968;2022-12-20T04:23:28;6.30;99.90
34135;DHT22;20410;55.578;12.968;2022-12-20T04:25:53;6.30;99.80
34135;DHT22;20410;55.578;12.968;2022-12-20T04:28:19;6.30;97.80
34135;DHT22;20410;55.578;12.968;2022-12-20T04:30:44;6.30;99.90
34135;DHT22;20410;55.578;12.968;2022-12-20T04:33:10;6.30;98.50
34135;DHT22;20410;55.578;12.968;2022-12-20T04:35:36;6.30;99.60
34135;DHT22;20410;55.578;12.968;2022-12-20T04:38:03;6.30;99.90
34135;DHT22;20410;55.578;12.968;2022-12-20T04:40:28;6.30;97.40
34135;DHT22;20410;55.578;12.968;2022-12-20T04:42:54;6.30;97.50
34135;DHT22;20410;55.578;12.968;2022-12-20T04:45:20;6.30;98.80
34135;DHT22;20410;55.578;12.968;2022-12-20T04:47:45;6.30;96.10
34135;DHT22;20410;55.578;12.968;2022-12-20T04:50:11;6.40;98.70
34135;DHT22;20410;55.578;12.968;2022-12-20T04:52:36;6.40;97.30
34135;DHT22;20410;55.578;12.968;2022-12-20T04:55:21;6.40;94.70
34135;DHT22;20410;55.578;12.968;2022-12-20T04:57:46;6.40;94.80
34135;DHT22;20410;55.578;12.968;2022-12-20T05:00:12;6.40;94.80
34135;DHT22;20410;55.578;12.968;2022-12-20T05:02:40;6.40;94.10
34135;DHT22;20410;55.578;12.968;2022-12-20T05:05:06;6.40;95.10
34135;DHT22;20410;55.578;12.968;2022-12-20T05:07:31;6.40;94.10
34135;DHT22;20410;55.578;12.968;2022-12-20T05:09:57;6.40;93.60
34135;DHT22;20410;55.578;12.968;2022-12-20T05:12:23;6.40;92.10
34135;DHT22;20410;55.578;12.968;2022-12-20T05:14:48;6.30;91.10
34135;DHT22;20410;55.578;12.968;2022-12-20T05:17:14;6.40;91.50
34135;DHT22;20410;55.578;12.968;2022-12-20T05:19:39;6.30;92.70
34135;DHT22;20410;55.578;12.968;2022-12-20T05:22:05;6.30;94.30
34135;DHT22;20410;55.578;12.968;2022-12-20T05:24:56;6.30;92.90
34135;DHT22;20410;55.578;12.968;2022-12-20T05:27:41;6.30;94.50
34135;DHT22;20410;55.578;12.968;2022-12-20T05:30:07;6.30;96.60
34135;DHT22;20410;55.578;12.968;2022-12-20T05:32:32;6.40;95.10
34135;DHT22;20410;55.578;12.968;2022-12-20T05:34:58;6.30;91.20
34135;DHT22;20410;55.578;12.968;2022-12-20T05:37:23;6.30;93.40
34135;DHT22;20410;55.578;12.968;2022-12-20T05:39:49;6.40;94.40
34135;DHT22;20410;55.578;12.968;2022-12-20T05:42:15;6.30;94.10
34135;DHT22;20410;55.578;12.968;2022-12-20T05:44:40;6.40;93.30
34135;DHT22;20410;55.578;12.968;2022-12-20T05:47:06;6.40;92.20
34135;DHT22;20410;55.578;12.968;2022-12-20T05:49:32;6.30;85.50
34135;DHT22;20410;55.578;12.968;2022-12-20T05:51:58;6.30;85.60
34135;DHT22;20410;55.578;12.968;2022-12-20T05:54:23;6.30;91.10
34135;DHT22;20410;55.578;12.968;2022-12-20T05:56:49;6.30;92.40
34135;DHT22;20410;55.578;12.968;2022-12-20T05:59:15;6.30;92.00
34135;DHT22;20410;55.578;12.968;2022-12-20T06:01:42;6.40;93.10
34135;DHT22;20410;55.578;12.968;2022-12-20T06:04:08;6.40;95.00
34135;DHT22;20410;55.578;12.968;2022-12-20T06:06:33;6.40;93.40
34135;DHT22;20410;55.578;12.968;2022-12-20T06:08:59;6.40;95.10
34135;DHT22;20410;55.578;12.968;2022-12-20T06:11:25;6.40;94.70
34135;DHT22;20410;55.578;12.968;2022-12-20T06:13:51;6.40;95.10
34135;DHT22;20410;55.578;12.968;2022-12-20T06:16:17;6.40;95.20
34135;DHT22;20410;55.578;12.968;2022-12-20T06:18:45;6.40;96.30
34135;DHT22;20410;55.578;12.968;2022-12-20T06:21:10;6.50;97.20
34135;DHT22;20410;55.578;12.968;2022-12-20T06:23:36;6.50;98.70
34135;DHT22;20410;55.578;12.968;2022-12-20T06:26:02;6.50;96.20
34135;DHT22;20410;55.578;12.968;2022-12-20T06:28:29;6.50;95.40
34135;DHT22;20410;55.578;12.968;2022-12-20T06:30:56;6.50;94.60
34135;DHT22;20410;55.578;12.968;2022-12-20T06:33:22;6.50;96.40
34135;DHT22;20410;55.578;12.968;2022-12-20T06:35:51;6.50;97.20
34135;DHT22;20410;55.578;12.968;2022-12-20T06:38:17;6.60;98.00
34135;DHT22;20410;55.578;12.968;2022-12-20T06:40:42;6.60;94.20
34135;DHT22;20410;55.578;12.968;2022-12-20T06:43:08;6.60;94.00
34135;DHT22;20410;55.578;12.968;2022-12-20T06:45:34;6.60;91.60
34135;DHT22;20410;55.578;12.968;2022-12-20T06:47:59;6.60;91.60
34135;DHT22;20410;55.578;12.968;2022-12-20T06:50:25;6.60;91.90
34135;DHT22;20410;55.578;12.968;2022-12-20T06:52:52;6.60;88.00
34135;DHT22;20410;55.578;12.968;2022-12-20T06:55:18;6.60;86.70
34135;DHT22;20410;55.578;12.968;2022-12-20T06:57:43;6.60;81.10
34135;DHT22;20410;55.578;12.968;2022-12-20T07:00:09;6.60;78.40
34135;DHT22;20410;55.578;12.968;2022-12-20T07:02:37;6.60;83.30
34135;DHT22;20410;55.578;12.968;2022-12-20T07:05:03;6.60;83.50
34135;DHT22;20410;55.578;12.968;2022-12-20T07:07:29;6.60;78.50
34135;DHT22;20410;55.578;12.968;2022-12-20T07:09:54;6.70;81.20
34135;DHT22;20410;55.578;12.968;2022-12-20T07:12:20;6.70;76.20
34135;DHT22;20410;55.578;12.968;2022-12-20T07:14:46;6.70;71.60
34135;DHT22;20410;55.578;12.968;2022-12-20T07:17:11;6.70;68.80
34135;DHT22;20410;55.578;12.968;2022-12-20T07:19:37;6.70;66.80
34135;DHT22;20410;55.578;12.968;2022-12-20T07:22:03;6.70;66.00
34135;DHT22;20410;55.578;12.968;2022-12-20T07:24:30;6.70;66.50
34135;DHT22;20410;55.578;12.968;2022-12-20T07:26:55;6.70;76.30
34135;DHT22;20410;55.578;12.968;2022-12-20T07:29:21;6.70;77.10
34135;DHT22;20410;55.578;12.968;2022-12-20T07:31:47;6.70;76.30
34135;DHT22;20410;55.578;12.968;2022-12-20T07:34:12;6.70;83.40
34135;DHT22;20410;55.578;12.968;2022-12-20T07:36:38;6.70;87.40
34135;DHT22;20410;55.578;12.968;2022-12-20T07:39:04;6.70;90.60
34135;DHT22;20410;55.578;12.968;2022-12-20T07:41:30;6.70;89.50
34135;DHT22;20410;55.578;12.968;2022-12-20T07:43:55;6.70;90.50
34135;DHT22;20410;55.578;12.968;2022-12-20T07:46:23;6.70;91.50
34135;DHT22;20410;55.578;12.968;2022-12-20T07:48:49;6.70;93.70
34135;DHT22;20410;55.578;12.968;2022-12-20T07:51:21;6.70;97.30
34135;DHT22;20410;55.578;12.968;2022-12-20T07:53:58;6.70;94.90
34135;DHT22;20410;55.578;12.968;2022-12-20T07:56:25;6.70;94.30
34135;DHT22;20410;55.578;12.968;2022-12-20T07:58:53;6.70;94.50
34135;DHT22;20410;55.578;12.968;2022-12-20T08:01:23;6.80;96.00
34135;DHT22;20410;55.578;12.968;2022-12-20T08:03:55;6.80;96.70
34135;DHT22;20410;55.578;12.968;2022-12-20T08:06:22;6.80;96.30
34135;DHT22;20410;55.578;12.968;2022-12-20T08:08:51;6.80;91.60
34135;DHT22;20410;55.578;12.968;2022-12-20T08:11:19;6.80;93.30
34135;DHT22;20410;55.578;12.968;2022-12-20T08:13:48;6.80;94.50
34135;DHT22;20410;55.578;12.968;2022-12-20T08:16:14;6.80;91.60
34135;DHT22;20410;55.578;12.968;2022-12-20T08:18:40;6.80;91.10
34135;DHT22;20410;55.578;12.968;2022-12-20T08:21:06;6.80;91.90
34135;DHT22;20410;55.578;12.968;2022-12-20T08:23:31;6.70;93.30
34135;DHT22;20410;55.578;12.968;2022-12-20T08:26:00;6.70;89.30
34135;DHT22;20410;55.578;12.968;2022-12-20T08:28:25;6.80;92.20
34135;DHT22;20410;55.578;12.968;2022-12-20T08:30:51;6.80;91.20
34135;DHT22;20410;55.578;12.968;2022-12-20T08:33:17;6.70;85.50
34135;DHT22;20410;55.578;12.968;2022-12-20T08:35:42;6.70;88.50
34135;DHT22;20410;55.578;12.968;2022-12-20T08:38:08;6.70;90.10
34135;DHT22;20410;55.578;12.968;2022-12-20T08:40:34;6.80;92.90
34135;DHT22;20410;55.578;12.968;2022-12-20T08:42:59;6.80;91.10
34135;DHT22;20410;55.578;12.968;2022-12-20T08:45:25;6.80;90.30
34135;DHT22;20410;55.578;12.968;2022-12-20T08:47:52;6.80;92.00
34135;DHT22;20410;55.578;12.968;2022-12-20T08:50:17;6.80;90.40
34135;DHT22;20410;55.578;12.968;2022-12-20T08:52:43;6.80;92.90
34135;DHT22;20410;55.578;12.968;2022-12-20T08:55:09;6.80;95.60
34135;DHT22;20410;55.578;12.968;2022-12-20T08:57:35;6.80;94.60
34135;DHT22;20410;55.578;12.968;2022-12-20T09:00:00;6.90;94.50
34135;DHT22;20410;55.578;12.968;2022-12-20T09:02:27;6.90;92.90
34135;DHT22;20410;55.578;12.968;2022-12-20T09:04:52;6.90;91.70
34135;DHT22;20410;55.578;12.968;2022-12-20T09:07:19;6.90;90.70
34135;DHT22;20410;55.578;12.968;2022-12-20T09:09:45;6.90;90.10
34135;DHT22;20410;55.578;12.968;2022-12-20T09:12:11;6.90;87.30
34135;DHT22;20410;55.578;12.968;2022-12-20T09:14:37;6.90;89.70
34135;DHT22;20410;55.578;12.968;2022-12-20T09:17:02;6.90;89.90
34135;DHT22;20410;55.578;12.968;2022-12-20T09:19:28;6.90;91.20
34135;DHT22;20410;55.578;12.968;2022-12-20T09:21:55;6.90;94.20
34135;DHT22;20410;55.578;12.968;2022-12-20T09:24:20;6.90;94.40
34135;DHT22;20410;55.578;12.968;2022-12-20T09:26:46;6.90;94.30
34135;DHT22;20410;55.578;12.968;2022-12-20T09:29:12;6.90;94.80
34135;DHT22;20410;55.578;12.968;2022-12-20T09:31:37;7.00;94.20
34135;DHT22;20410;55.578;12.968;2022-12-20T09:34:03;7.00;94.90
34135;DHT22;20410;55.578;12.968;2022-12-20T09:36:29;7.00;92.40
34135;DHT22;20410;55.578;12.968;2022-12-20T09:38:56;7.00;93.30
34135;DHT22;20410;55.578;12.968;2022-12-20T09:41:24;7.00;94.10
34135;DHT22;20410;55.578;12.968;2022-12-20T09:43:50;6.90;93.70
34135;DHT22;20410;55.578;12.968;2022-12-20T09:46:16;6.90;95.00
34135;DHT22;20410;55.578;12.968;2022-12-20T09:48:42;6.90;96.00
34135;DHT22;20410;55.578;12.968;2022-12-20T09:56:25;7.00;99.10
34135;DHT22;20410;55.578;12.968;2022-12-20T09:59:01;6.90;96.60
34135;DHT22;20410;55.578;12.968;2022-12-20T10:01:31;6.90;97.60
34135;DHT22;20410;55.578;12.968;2022-12-20T10:03:58;7.00;98.90
34135;DHT22;20410;55.578;12.968;2022-12-20T10:20:52;6.90;96.10
34135;DHT22;20410;55.578;12.968;2022-12-20T10:23:55;7.00;99.20
34135;DHT22;20410;55.578;12.968;2022-12-20T10:26:22;6.90;95.30
34135;DHT22;20410;55.578;12.968;2022-12-20T10:28:48;7.00;98.30
34135;DHT22;20410;55.578;12.968;2022-12-20T10:31:16;7.00;98.70
34135;DHT22;20410;55.578;12.968;2022-12-20T10:33:43;7.00;97.60
34135;DHT22;20410;55.578;12.968;2022-12-20T10:36:22;7.00;95.30
34135;DHT22;20410;55.578;12.968;2022-12-20T10:38:51;7.00;98.20
34135;DHT22;20410;55.578;12.968;2022-12-20T10:41:23;7.00;96.70
34135;DHT22;20410;55.578;12.968;2022-12-20T10:46:20;7.10;96.80
34135;DHT22;20410;55.578;12.968;2022-12-20T10:48:47;7.10;99.00
34135;DHT22;20410;55.578;12.968;2022-12-20T10:51:20;7.10;99.30
34135;DHT22;20410;55.578;12.968;2022-12-20T10:53:56;7.20;99.50
34135;DHT22;20410;55.578;12.968;2022-12-20T10:56:31;7.20;99.90
34135;DHT22;20410;55.578;12.968;2022-12-20T11:01:43;7.20;94.40
34135;DHT22;20410;55.578;12.968;2022-12-20T11:04:30;7.20;93.70
34135;DHT22;20410;55.578;12.968;2022-12-20T11:06:57;7.20;94.10
34135;DHT22;20410;55.578;12.968;2022-12-20T11:12:12;7.10;89.70
34135;DHT22;20410;55.578;12.968;2022-12-20T11:14:39;7.10;90.70
34135;DHT22;20410;55.578;12.968;2022-12-20T11:17:36;7.20;94.60
34135;DHT22;20410;55.578;12.968;2022-12-20T11:20:06;7.10;93.50
34135;DHT22;20410;55.578;12.968;2022-12-20T11:34:14;7.20;92.10
34135;DHT22;20410;55.578;12.968;2022-12-20T11:39:47;7.20;82.30
34135;DHT22;20410;55.578;12.968;2022-12-20T11:50:54;7.20;84.60
34135;DHT22;20410;55.578;12.968;2022-12-20T11:56:01;7.20;79.50
34135;DHT22;20410;55.578;12.968;2022-12-20T11:58:55;7.10;87.00
34135;DHT22;20410;55.578;12.968;2022-12-20T12:01:27;7.10;82.30
34135;DHT22;20410;55.578;12.968;2022-12-20T12:06:36;7.10;84.60
34135;DHT22;20410;55.578;12.968;2022-12-20T12:11:46;7.10;91.10
34135;DHT22;20410;55.578;12.968;2022-12-20T12:14:28;7.10;87.90
34135;DHT22;20410;55.578;12.968;2022-12-20T12:16:57;7.10;91.70
34135;DHT22;20410;55.578;12.968;2022-12-20T12:19:25;7.20;91.50
34135;DHT22;20410;55.578;12.968;2022-12-20T12:22:00;7.20;91.40
34135;DHT22;20410;55.578;12.968;2022-12-20T12:24:41;7.20;91.20
34135;DHT22;20410;55.578;12.968;2022-12-20T12:27:24;7.20;92.00
34135;DHT22;20410;55.578;12.968;2022-12-20T12:29:52;7.20;89.00
34135;DHT22;20410;55.578;12.968;2022-12-20T12:43:50;7.10;99.10
34135;DHT22;20410;55.578;12.968;2022-12-20T12:46:27;7.10;98.40
34135;DHT22;20410;55.578;12.968;2022-12-20T12:48:56;7.20;99.70
34135;DHT22;20410;55.578;12.968;2022-12-20T12:51:30;7.20;99.90
34135;DHT22;20410;55.578;12.968;2022-12-20T12:54:15;7.20;98.30
34135;DHT22;20410;55.578;12.968;2022-12-20T12:56:46;7.30;98.50
34135;DHT22;20410;55.578;12.968;2022-12-20T13:09:34;7.30;97.30
34135;DHT22;20410;55.578;12.968;2022-12-20T13:19:54;7.40;94.20
34135;DHT22;20410;55.578;12.968;2022-12-20T13:22:22;7.30;93.00
34135;DHT22;20410;55.578;12.968;2022-12-20T13:24:58;7.40;94.40
34135;DHT22;20410;55.578;12.968;2022-12-20T13:27:36;7.40;95.00
34135;DHT22;20410;55.578;12.968;2022-12-20T13:38:02;7.40;94.20
34135;DHT22;20410;55.578;12.968;2022-12-20T13:43:30;7.40;90.70
34135;DHT22;20410;55.578;12.968;2022-12-20T13:51:02;7.40;88.60
34135;DHT22;20410;55.578;12.968;2022-12-20T13:53:28;7.40;85.70
34135;DHT22;20410;55.578;12.968;2022-12-20T13:55:55;7.40;80.90
34135;DHT22;20410;55.578;12.968;2022-12-20T13:58:26;7.40;77.00
34135;DHT22;20410;55.578;12.968;2022-12-20T14:01:03;7.40;79.50
34135;DHT22;20410;55.578;12.968;2022-12-20T14:03:30;7.40;80.50
34135;DHT22;20410;55.578;12.968;2022-12-20T14:06:02;7.40;85.40
34135;DHT22;20410;55.578;12.968;2022-12-20T14:08:32;7.40;86.70
34135;DHT22;20410;55.578;12.968;2022-12-20T14:13:58;7.40;86.60
34135;DHT22;20410;55.578;12.968;2022-12-20T14:16:26;7.40;91.00
34135;DHT22;20410;55.578;12.968;2022-12-20T14:19:02;7.40;86.80
34135;DHT22;20410;55.578;12.968;2022-12-20T14:21:28;7.40;87.50
34135;DHT22;20410;55.578;12.968;2022-12-20T14:23:56;7.40;85.90
34135;DHT22;20410;55.578;12.968;2022-12-20T14:26:35;7.40;86.20
34135;DHT22;20410;55.578;12.968;2022-12-20T14:29:09;7.40;85.70
34135;DHT22;20410;55.578;12.968;2022-12-20T14:31:41;7.30;85.40
34135;DHT22;20410;55.578;12.968;2022-12-20T14:36:47;7.40;87.80
34135;DHT22;20410;55.578;12.968;2022-12-20T14:39:33;7.40;91.50
34135;DHT22;20410;55.578;12.968;2022-12-20T14:44:36;7.30;85.30
34135;DHT22;20410;55.578;12.968;2022-12-20T14:47:19;7.30;88.90
34135;DHT22;20410;55.578;12.968;2022-12-20T14:49:48;7.40;91.80
34135;DHT22;20410;55.578;12.968;2022-12-20T14:52:20;7.30;90.70
34135;DHT22;20410;55.578;12.968;2022-12-20T14:57:31;7.40;95.70
34135;DHT22;20410;55.578;12.968;2022-12-20T15:13:28;7.40;97.30
34135;DHT22;20410;55.578;12.968;2022-12-20T15:15:54;7.40;98.40
34135;DHT22;20410;55.578;12.968;2022-12-20T15:18:20;7.40;97.80
34135;DHT22;20410;55.578;12.968;2022-12-20T15:20:59;7.40;96.10
34135;DHT22;20410;55.578;12.968;2022-12-20T15:23:25;7.50;97.60
34135;DHT22;20410;55.578;12.968;2022-12-20T15:25:50;7.50;93.50
34135;DHT22;20410;55.578;12.968;2022-12-20T15:28:21;7.50;95.70
34135;DHT22;20410;55.578;12.968;2022-12-20T15:30:48;7.50;96.00
34135;DHT22;20410;55.578;12.968;2022-12-20T15:33:20;7.50;93.40
34135;DHT22;20410;55.578;12.968;2022-12-20T15:35:46;7.50;93.30
34135;DHT22;20410;55.578;12.968;2022-12-20T15:38:18;7.50;93.60
34135;DHT22;20410;55.578;12.968;2022-12-20T15:40:49;7.40;93.20
34135;DHT22;20410;55.578;12.968;2022-12-20T15:43:19;7.50;95.80
34135;DHT22;20410;55.578;12.968;2022-12-20T15:45:47;7.50;91.30
34135;DHT22;20410;55.578;12.968;2022-12-20T15:48:18;7.50;92.80
34135;DHT22;20410;55.578;12.968;2022-12-20T15:50:49;7.50;91.30
34135;DHT22;20410;55.578;12.968;2022-12-20T15:53:18;7.50;87.00
34135;DHT22;20410;55.578;12.968;2022-12-20T15:55:48;7.50;88.00
34135;DHT22;20410;55.578;12.968;2022-12-20T15:58:13;7.50;84.40
34135;DHT22;20410;55.578;12.968;2022-12-20T16:00:39;7.50;79.20
34135;DHT22;20410;55.578;12.968;2022-12-20T16:03:18;7.50;75.80
34135;DHT22;20410;55.578;12.968;2022-12-20T16:05:46;7.50;76.00
34135;DHT22;20410;55.578;12.968;2022-12-20T16:08:11;7.40;72.50
34135;DHT22;20410;55.578;12.968;2022-12-20T16:10:37;7.50;76.20
34135;DHT22;20410;55.578;12.968;2022-12-20T16:13:03;7.50;82.90
34135;DHT22;20410;55.578;12.968;2022-12-20T16:15:29;7.50;86.00
34135;DHT22;20410;55.578;12.968;2022-12-20T16:17:55;7.50;82.00
34135;DHT22;20410;55.578;12.968;2022-12-20T16:20:20;7.50;81.40
34135;DHT22;20410;55.578;12.968;2022-12-20T16:22:46;7.60;85.60
34135;DHT22;20410;55.578;12.968;2022-12-20T16:25:26;7.60;82.60
34135;DHT22;20410;55.578;12.968;2022-12-20T16:27:52;7.60;77.90
34135;DHT22;20410;55.578;12.968;2022-12-20T16:30:18;7.60;84.00
34135;DHT22;20410;55.578;12.968;2022-12-20T16:32:43;7.60;84.30
34135;DHT22;20410;55.578;12.968;2022-12-20T16:35:27;7.60;77.00
34135;DHT22;20410;55.578;12.968;2022-12-20T16:37:54;7.60;82.90
34135;DHT22;20410;55.578;12.968;2022-12-20T16:40:21;7.50;78.20
34135;DHT22;20410;55.578;12.968;2022-12-20T16:42:47;7.50;75.90
34135;DHT22;20410;55.578;12.968;2022-12-20T16:45:17;7.50;77.40
34135;DHT22;20410;55.578;12.968;2022-12-20T16:47:44;7.50;87.60
34135;DHT22;20410;55.578;12.968;2022-12-20T16:50:10;7.50;87.90
34135;DHT22;20410;55.578;12.968;2022-12-20T16:52:36;7.50;82.60
34135;DHT22;20410;55.578;12.968;2022-12-20T16:55:03;7.50;83.70
34135;DHT22;20410;55.578;12.968;2022-12-20T16:57:29;7.50;88.10
34135;DHT22;20410;55.578;12.968;2022-12-20T16:59:55;7.50;85.90
34135;DHT22;20410;55.578;12.968;2022-12-20T17:04:46;7.50;85.50
34135;DHT22;20410;55.578;12.968;2022-12-20T17:07:11;7.50;91.90
34135;DHT22;20410;55.578;12.968;2022-12-20T17:09:37;7.60;93.40
34135;DHT22;20410;55.578;12.968;2022-12-20T17:12:08;7.60;94.20
34135;DHT22;20410;55.578;12.968;2022-12-20T17:14:37;7.60;91.30
34135;DHT22;20410;55.578;12.968;2022-12-20T17:17:02;7.60;93.40
34135;DHT22;20410;55.578;12.968;2022-12-20T17:19:28;7.60;93.50
34135;DHT22;20410;55.578;12.968;2022-12-20T17:21:54;7.60;96.20
34135;DHT22;20410;55.578;12.968;2022-12-20T17:24:21;7.60;95.00
34135;DHT22;20410;55.578;12.968;2022-12-20T17:26:47;7.70;94.80
34135;DHT22;20410;55.578;12.968;2022-12-20T17:29:13;7.60;92.00
34135;DHT22;20410;55.578;12.968;2022-12-20T17:31:41;7.60;93.70
34135;DHT22;20410;55.578;12.968;2022-12-20T17:34:26;7.60;91.00
34135;DHT22;20410;55.578;12.968;2022-12-20T17:36:56;7.60;94.30
34135;DHT22;20410;55.578;12.968;2022-12-20T17:39:23;7.60;93.00
34135;DHT22;20410;55.578;12.968;2022-12-20T17:41:50;7.60;93.20
34135;DHT22;20410;55.578;12.968;2022-12-20T17:44:27;7.60;93.20
34135;DHT22;20410;55.578;12.968;2022-12-20T17:46:54;7.60;92.50
34135;DHT22;20410;55.578;12.968;2022-12-20T17:49:20;7.60;93.70
34135;DHT22;20410;55.578;12.968;2022-12-20T17:51:48;7.60;94.40
34135;DHT22;20410;55.578;12.968;2022-12-20T17:54:18;7.50;92.70
34135;DHT22;20410;55.578;12.968;2022-12-20T17:56:44;7.60;97.20
34135;DHT22;20410;55.578;12.968;2022-12-20T17:59:12;7.60;96.80
34135;DHT22;20410;55.578;12.968;2022-12-20T18:01:38;7.60;97.70